Middletown, Delaware
Current Conditions -  °F | °C
As of 9:59 AM on Wednesday 26 Nov 2014 (Local Time) from KILG Reporting Station
Moderate Rain Moderate Rain  
Wind Chill: 30°   Ceiling: 900
Heat Index: 38°   Visibility: 2.5mi
Dew Point: 35°   Wind: 12mph
Humidity: 89%   Direction: 30°NNE
Pressure: 30.07"   Gusts: NA
Location:  39.45°N, 75.72°W
Report Text: KILG 261459Z 03010KT 2 1/2SM RA BR SCT005 BKN009 OVC014 03/02 A3007 RMK AO2 PRESFR P0002 T00330017
Loading
Personal Weather Stations






























Interactive Weather Map New forecast layout! Learn more

10-Day Weather Forecast

Advertisements
Track Severe Weather on mobile